createdAt,value
2023-03-06T00:00:51.344Z,63.81
2023-03-06T00:01:51.290Z,68.48
2023-03-06T00:02:53.800Z,73.96
2023-03-06T00:03:52.811Z,61.71
2023-03-06T00:04:51.856Z,62.04
2023-03-06T00:05:52.964Z,62.20
2023-03-06T00:06:52.293Z,66.87
2023-03-06T00:07:52.484Z,61.71
2023-03-06T00:08:53.290Z,66.06
2023-03-06T00:09:53.327Z,76.54
2023-03-06T00:10:52.992Z,62.04
2023-03-06T00:11:53.790Z,78.31
2023-03-06T00:12:53.316Z,77.50
2023-03-06T00:13:54.155Z,72.67
2023-03-06T00:14:53.678Z,65.74
2023-03-06T00:15:55.378Z,82.18
2023-03-06T00:16:53.998Z,64.13
2023-03-06T00:17:54.215Z,73.32
2023-03-06T00:18:54.400Z,72.35
2023-03-06T00:19:54.591Z,67.03
2023-03-06T00:20:54.811Z,64.78
2023-03-06T00:21:54.997Z,63.65
2023-03-06T00:22:56.312Z,64.61
2023-03-06T00:23:56.330Z,64.78
2023-03-06T00:24:55.605Z,68.00
2023-03-06T00:25:57.296Z,80.08
2023-03-06T00:26:55.920Z,66.39
2023-03-06T00:27:56.145Z,65.90
2023-03-06T00:28:56.261Z,65.74
2023-03-06T00:29:56.471Z,67.68
2023-03-06T00:30:57.339Z,64.29
2023-03-06T00:31:56.925Z,63.97
2023-03-06T00:32:58.292Z,81.69
2023-03-06T00:33:57.351Z,62.68
2023-03-06T00:34:57.548Z,64.29
2023-03-06T00:35:57.785Z,63.65
2023-03-06T00:36:57.856Z,62.84
2023-03-06T00:37:58.041Z,65.74
2023-03-06T00:38:58.245Z,75.89
2023-03-06T00:39:58.421Z,79.44
2023-03-06T00:40:58.846Z,82.02
2023-03-06T00:41:59.292Z,64.29
2023-03-06T00:42:58.927Z,66.87
2023-03-06T00:43:59.116Z,77.34
2023-03-06T00:44:59.305Z,79.44
2023-03-06T00:45:59.557Z,66.71
2023-03-06T00:46:59.629Z,65.10
2023-03-06T00:47:59.786Z,77.99
2023-03-06T00:49:01.657Z,70.42
2023-03-06T00:50:00.166Z,82.82
2023-03-06T00:51:00.395Z,74.28
2023-03-06T00:52:00.580Z,64.13
2023-03-06T00:53:00.736Z,62.68
2023-03-06T00:54:00.904Z,65.90
2023-03-06T00:55:01.798Z,63.33
2023-03-06T00:56:01.339Z,76.54
2023-03-06T00:57:01.537Z,81.86
2023-03-06T00:58:01.705Z,63.81
2023-03-06T00:59:02.845Z,63.65
2023-03-06T01:00:02.139Z,61.71
2023-03-06T01:01:02.395Z,64.29
2023-03-06T01:02:02.564Z,75.73
2023-03-06T01:03:02.672Z,65.74
2023-03-06T01:04:03.835Z,62.36
2023-03-06T01:05:03.799Z,64.29
2023-03-06T01:06:03.220Z,64.13
2023-03-06T01:07:03.384Z,61.39
2023-03-06T01:08:04.246Z,62.68
2023-03-06T01:09:05.297Z,63.00
2023-03-06T01:10:03.929Z,62.84
2023-03-06T01:11:04.104Z,65.26
2023-03-06T01:12:04.838Z,65.10
2023-03-06T01:13:04.482Z,65.42
2023-03-06T01:14:04.671Z,65.58
2023-03-06T01:15:04.850Z,65.26
2023-03-06T01:16:05.029Z,62.04
2023-03-06T01:17:05.210Z,75.09
2023-03-06T01:18:05.378Z,63.49
2023-03-06T01:19:06.297Z,64.13
2023-03-06T01:20:05.727Z,62.84
2023-03-06T01:21:05.918Z,63.49
2023-03-06T01:22:06.812Z,62.52
2023-03-06T01:23:06.337Z,64.78
2023-03-06T01:24:06.516Z,63.16
2023-03-06T01:25:06.727Z,79.28
2023-03-06T01:26:06.909Z,60.91
2023-03-06T01:27:07.087Z,64.13
2023-03-06T01:28:07.796Z,64.29
2023-03-06T01:29:07.483Z,66.23
2023-03-06T01:30:07.659Z,62.04
2023-03-06T01:31:07.849Z,85.72
2023-03-06T01:32:08.087Z,63.65
2023-03-06T01:33:08.146Z,63.00
2023-03-06T01:34:10.304Z,63.97
2023-03-06T01:35:10.298Z,62.68
2023-03-06T01:36:09.333Z,65.58
2023-03-06T01:37:09.804Z,66.06
2023-03-06T01:38:09.103Z,83.95
2023-03-06T01:39:09.295Z,64.78
2023-03-06T01:40:09.481Z,63.97
2023-03-06T01:41:09.640Z,65.90
2023-03-06T01:42:09.804Z,65.10
2023-03-06T01:43:09.989Z,76.05
2023-03-06T01:44:10.197Z,67.84
2023-03-06T01:45:10.368Z,62.68
2023-03-06T01:46:10.685Z,64.29
2023-03-06T01:47:10.722Z,63.00
2023-03-06T01:48:11.894Z,62.20
2023-03-06T01:49:11.057Z,64.29
2023-03-06T01:50:11.861Z,64.61
2023-03-06T01:51:11.410Z,75.89
2023-03-06T01:52:12.312Z,66.87
2023-03-06T01:53:12.322Z,65.42
2023-03-06T01:54:11.943Z,63.97
2023-03-06T01:55:14.308Z,62.20
2023-03-06T01:56:12.306Z,73.64
2023-03-06T01:57:13.249Z,63.00
2023-03-06T01:58:13.626Z,64.29
2023-03-06T01:59:12.765Z,61.71
2023-03-06T02:00:13.810Z,63.33
2023-03-06T02:01:13.865Z,77.99
2023-03-06T02:02:13.310Z,64.61
2023-03-06T02:03:13.516Z,62.68
2023-03-06T02:04:14.351Z,62.04
2023-03-06T02:05:14.812Z,61.87
2023-03-06T02:06:14.750Z,63.00
2023-03-06T02:07:14.854Z,63.33
2023-03-06T02:08:14.516Z,63.65
2023-03-06T02:09:14.691Z,61.23
2023-03-06T02:10:16.816Z,85.08
2023-03-06T02:11:15.401Z,65.90
2023-03-06T02:12:17.315Z,67.51
2023-03-06T02:13:15.413Z,76.05
2023-03-06T02:14:17.312Z,83.47
2023-03-06T02:15:15.831Z,78.63
2023-03-06T02:16:16.032Z,62.20
2023-03-06T02:17:17.823Z,66.55
2023-03-06T02:18:16.360Z,66.87
2023-03-06T02:19:17.320Z,61.07
2023-03-06T02:20:16.718Z,66.87
2023-03-06T02:21:17.363Z,63.33
2023-03-06T02:22:17.022Z,63.65
2023-03-06T02:23:17.222Z,72.99
2023-03-06T02:24:18.178Z,83.14
2023-03-06T02:25:17.588Z,64.61
2023-03-06T02:26:17.805Z,60.59
2023-03-06T02:27:17.993Z,63.16
2023-03-06T02:28:18.223Z,62.52
2023-03-06T02:29:18.424Z,64.13
2023-03-06T02:30:18.660Z,72.99
2023-03-06T02:31:18.936Z,62.68
2023-03-06T02:32:19.047Z,76.38
2023-03-06T02:33:19.178Z,68.80
2023-03-06T02:34:19.268Z,79.28
2023-03-06T02:35:19.470Z,63.49
2023-03-06T02:36:20.696Z,63.00
2023-03-06T02:37:19.850Z,65.58
2023-03-06T02:38:20.818Z,63.00
2023-03-06T02:39:21.687Z,67.19
2023-03-06T02:40:20.420Z,62.52
2023-03-06T02:41:20.618Z,67.19
2023-03-06T02:42:21.323Z,65.58
2023-03-06T02:43:21.042Z,74.44
2023-03-06T02:44:21.244Z,65.26
2023-03-06T02:45:21.413Z,63.49
2023-03-06T02:46:22.398Z,61.87
2023-03-06T02:47:22.372Z,80.89
2023-03-06T02:48:22.028Z,61.55
2023-03-06T02:49:22.228Z,63.00
2023-03-06T02:50:23.326Z,64.61
2023-03-06T02:51:23.316Z,62.52
2023-03-06T02:52:22.836Z,74.93
2023-03-06T02:53:23.035Z,62.36
2023-03-06T02:54:23.219Z,62.68
2023-03-06T02:55:24.181Z,64.13
2023-03-06T02:56:25.818Z,65.90
2023-03-06T02:57:23.664Z,61.07
2023-03-06T02:58:23.843Z,71.87
2023-03-06T02:59:23.960Z,65.90
2023-03-06T03:00:24.112Z,64.61
2023-03-06T03:01:24.872Z,77.67
2023-03-06T03:02:25.319Z,64.78
2023-03-06T03:03:24.591Z,63.33
2023-03-06T03:04:25.441Z,61.07
2023-03-06T03:05:24.857Z,78.47
2023-03-06T03:06:25.004Z,75.89
2023-03-06T03:07:25.138Z,80.24
2023-03-06T03:08:25.370Z,63.97
2023-03-06T03:09:26.313Z,78.79
2023-03-06T03:10:27.180Z,60.59
2023-03-06T03:11:25.871Z,76.70
2023-03-06T03:12:27.312Z,84.43
2023-03-06T03:13:26.853Z,83.63
2023-03-06T03:14:28.178Z,73.15
2023-03-06T03:15:27.811Z,79.60
2023-03-06T03:16:27.360Z,65.10
2023-03-06T03:17:28.811Z,74.93
2023-03-06T03:18:27.060Z,77.18
2023-03-06T03:19:27.232Z,81.86
2023-03-06T03:20:27.425Z,75.25
2023-03-06T03:21:27.620Z,80.08
2023-03-06T03:22:28.778Z,79.60
2023-03-06T03:23:28.811Z,74.28
2023-03-06T03:24:28.122Z,62.36
2023-03-06T03:25:28.316Z,80.08
2023-03-06T03:26:28.484Z,74.44
2023-03-06T03:27:28.675Z,74.77
2023-03-06T03:28:28.830Z,81.69
2023-03-06T03:29:29.006Z,80.08
2023-03-06T03:30:29.157Z,74.60
2023-03-06T03:31:30.427Z,62.68
2023-03-06T03:32:29.556Z,79.92
2023-03-06T03:33:29.732Z,66.06
2023-03-06T03:34:30.378Z,74.77
2023-03-06T03:35:30.892Z,79.12
2023-03-06T03:36:30.176Z,77.18
2023-03-06T03:37:30.862Z,63.81
2023-03-06T03:38:31.363Z,72.19
2023-03-06T03:39:31.334Z,80.08
2023-03-06T03:40:30.964Z,79.92
2023-03-06T03:41:31.144Z,79.76
2023-03-06T03:42:31.284Z,77.99
2023-03-06T03:43:31.558Z,80.41
2023-03-06T03:44:31.722Z,74.60
2023-03-06T03:45:32.877Z,80.41
2023-03-06T03:46:32.023Z,63.49
2023-03-06T03:47:32.141Z,80.89
2023-03-06T03:48:33.330Z,75.09
2023-03-06T03:49:32.487Z,80.73
2023-03-06T03:50:33.327Z,83.31
2023-03-06T03:51:32.852Z,81.05
2023-03-06T03:52:33.015Z,79.76
2023-03-06T03:53:33.380Z,70.42
2023-03-06T03:54:33.327Z,77.67
2023-03-06T03:55:33.463Z,80.24
2023-03-06T03:56:33.630Z,77.34
2023-03-06T03:57:33.753Z,78.47
2023-03-06T03:58:33.921Z,83.14
2023-03-06T03:59:34.132Z,80.24
2023-03-06T04:00:35.263Z,70.25
2023-03-06T04:01:36.435Z,81.21
2023-03-06T04:02:35.346Z,78.79
2023-03-06T04:03:34.987Z,82.66
2023-03-06T04:04:35.909Z,80.24
2023-03-06T04:05:35.350Z,80.89
2023-03-06T04:06:37.322Z,80.57
2023-03-06T04:07:35.711Z,80.89
2023-03-06T04:08:35.882Z,80.73
2023-03-06T04:09:36.038Z,81.37
2023-03-06T04:10:36.199Z,82.82
2023-03-06T04:11:36.355Z,80.73
2023-03-06T04:12:37.324Z,81.37
2023-03-06T04:13:36.684Z,80.73
2023-03-06T04:14:36.853Z,80.57
2023-03-06T04:15:37.018Z,84.11
2023-03-06T04:16:37.824Z,82.02
2023-03-06T04:17:38.692Z,82.02
2023-03-06T04:18:38.372Z,83.47
2023-03-06T04:19:37.762Z,78.31
2023-03-06T04:20:39.332Z,84.43
2023-03-06T04:21:39.327Z,79.76
2023-03-06T04:22:38.238Z,82.02
2023-03-06T04:23:38.402Z,81.69
2023-03-06T04:24:38.586Z,78.79
2023-03-06T04:25:38.754Z,82.98
2023-03-06T04:26:38.949Z,82.02
2023-03-06T04:27:39.176Z,82.98
2023-03-06T04:28:39.366Z,80.41
2023-03-06T04:29:40.335Z,80.89
2023-03-06T04:30:39.740Z,80.41
2023-03-06T04:31:40.997Z,82.18
2023-03-06T04:32:41.239Z,81.69
2023-03-06T04:33:40.284Z,82.18
2023-03-06T04:34:41.385Z,82.02
2023-03-06T04:35:41.445Z,87.98
2023-03-06T04:36:41.836Z,80.89
2023-03-06T04:37:41.117Z,82.66
2023-03-06T04:38:41.346Z,81.21
2023-03-06T04:39:41.540Z,84.27
2023-03-06T04:40:43.297Z,84.76
2023-03-06T04:41:41.838Z,82.02
2023-03-06T04:42:41.966Z,84.27
2023-03-06T04:43:43.842Z,82.66
2023-03-06T04:44:43.285Z,82.34
2023-03-06T04:45:42.578Z,83.47
2023-03-06T04:46:42.772Z,82.34
2023-03-06T04:47:42.949Z,85.56
2023-03-06T04:48:43.878Z,83.79
2023-03-06T04:49:43.394Z,81.21
2023-03-06T04:50:43.450Z,81.37
2023-03-06T04:51:44.344Z,86.69
2023-03-06T04:52:43.859Z,83.47
2023-03-06T04:53:44.841Z,81.86
2023-03-06T04:54:44.843Z,84.92
2023-03-06T04:55:44.367Z,80.73
2023-03-06T04:56:44.571Z,80.41
2023-03-06T04:57:45.380Z,86.69
2023-03-06T04:58:44.942Z,86.85
2023-03-06T04:59:45.845Z,82.98
2023-03-06T05:00:45.384Z,81.69
2023-03-06T05:01:45.576Z,81.53
2023-03-06T05:02:45.753Z,80.08
2023-03-06T05:03:46.706Z,82.02
2023-03-06T05:04:46.065Z,83.79
2023-03-06T05:05:46.840Z,79.76
2023-03-06T05:06:47.343Z,85.24
2023-03-06T05:07:46.611Z,82.66
2023-03-06T05:08:46.801Z,85.08
2023-03-06T05:09:46.982Z,83.63
2023-03-06T05:10:47.170Z,81.05
2023-03-06T05:11:47.385Z,82.02
2023-03-06T05:12:47.578Z,81.53
2023-03-06T05:13:47.719Z,82.34
2023-03-06T05:14:48.199Z,79.60
2023-03-06T05:15:50.828Z,83.14
2023-03-06T05:16:48.244Z,81.53
2023-03-06T05:17:49.340Z,81.53
2023-03-06T05:18:50.614Z,82.50
2023-03-06T05:19:49.744Z,81.21
2023-03-06T05:20:49.014Z,83.95
2023-03-06T05:21:49.211Z,83.95
2023-03-06T05:22:49.351Z,82.50
2023-03-06T05:23:49.485Z,80.89
2023-03-06T05:24:49.626Z,80.89
2023-03-06T05:25:49.772Z,82.18
2023-03-06T05:26:49.960Z,81.21
2023-03-06T05:27:50.877Z,79.44
2023-03-06T05:28:50.889Z,84.43
2023-03-06T05:29:50.526Z,80.89
2023-03-06T05:30:50.685Z,80.41
2023-03-06T05:31:50.928Z,85.40
2023-03-06T05:32:51.024Z,86.69
2023-03-06T05:33:51.252Z,80.89
2023-03-06T05:34:52.269Z,84.43
2023-03-06T05:35:52.414Z,81.37
2023-03-06T05:36:51.813Z,80.24
2023-03-06T05:37:51.981Z,83.47
2023-03-06T05:38:52.404Z,82.82
2023-03-06T05:39:53.386Z,83.63
2023-03-06T05:40:53.348Z,86.21
2023-03-06T05:41:52.846Z,85.08
2023-03-06T05:42:53.023Z,83.95
2023-03-06T05:43:53.157Z,80.57
2023-03-06T05:44:53.289Z,82.98
2023-03-06T05:45:53.476Z,86.21
2023-03-06T05:46:53.601Z,83.95
2023-03-06T05:47:53.748Z,83.79
2023-03-06T05:48:53.908Z,83.47
2023-03-06T05:49:54.045Z,83.14
2023-03-06T05:50:54.257Z,82.34
2023-03-06T05:51:54.399Z,83.14
2023-03-06T05:52:55.390Z,83.14
2023-03-06T05:53:54.743Z,82.02
2023-03-06T05:54:55.846Z,84.59
2023-03-06T05:55:55.092Z,83.47
2023-03-06T05:56:55.233Z,83.14
2023-03-06T05:57:55.389Z,84.59
2023-03-06T05:58:56.345Z,81.53
2023-03-06T05:59:55.771Z,83.31
2023-03-06T06:00:55.927Z,81.86
2023-03-06T06:01:56.120Z,82.82
2023-03-06T06:02:56.265Z,83.95
2023-03-06T06:03:56.432Z,84.27
2023-03-06T06:04:57.850Z,80.89
2023-03-06T06:05:57.347Z,84.92
2023-03-06T06:06:56.980Z,80.73
2023-03-06T06:07:57.156Z,78.96
2023-03-06T06:08:57.309Z,84.76
2023-03-06T06:09:57.547Z,88.62
2023-03-06T06:10:57.716Z,81.37
2023-03-06T06:11:57.939Z,82.82
2023-03-06T06:12:58.847Z,81.86
2023-03-06T06:13:58.217Z,81.37
2023-03-06T06:14:59.862Z,81.53
2023-03-06T06:15:58.609Z,80.89
2023-03-06T06:16:59.391Z,79.12
2023-03-06T06:17:58.945Z,80.57
2023-03-06T06:18:59.891Z,83.47
2023-03-06T06:19:59.269Z,82.82
2023-03-06T06:20:59.411Z,81.05
2023-03-06T06:22:00.349Z,82.82
2023-03-06T06:22:59.747Z,85.08
2023-03-06T06:23:59.892Z,81.53
2023-03-06T06:25:00.102Z,82.18
2023-03-06T06:26:00.261Z,80.73
2023-03-06T06:27:02.655Z,81.53
2023-03-06T06:28:01.901Z,82.34
2023-03-06T06:29:00.773Z,82.18
2023-03-06T06:30:01.869Z,79.76
2023-03-06T06:31:01.200Z,82.34
2023-03-06T06:32:02.432Z,84.11
2023-03-06T06:33:01.664Z,86.04
2023-03-06T06:34:01.851Z,79.76
2023-03-06T06:35:02.036Z,82.98
2023-03-06T06:36:02.227Z,80.73
2023-03-06T06:37:03.217Z,80.41
2023-03-06T06:38:02.655Z,82.50
2023-03-06T06:39:02.873Z,80.41
2023-03-06T06:40:03.027Z,79.76
2023-03-06T06:41:35.738Z,87.17
2023-03-06T06:42:28.205Z,82.18
2023-03-06T06:43:05.905Z,86.04
2023-03-06T06:44:03.912Z,83.63
2023-03-06T06:45:04.085Z,83.14
2023-03-06T06:46:31.499Z,82.34
2023-03-06T06:47:22.255Z,82.18
2023-03-06T06:48:06.639Z,82.34
2023-03-06T06:49:04.803Z,84.27
2023-03-06T06:50:05.983Z,84.92
2023-03-06T06:51:05.143Z,88.62
2023-03-06T06:52:05.336Z,80.89
2023-03-06T06:53:06.397Z,80.73
2023-03-06T06:54:07.229Z,84.92
2023-03-06T06:55:05.855Z,81.69
2023-03-06T06:56:07.719Z,84.11
2023-03-06T06:57:06.218Z,82.98
2023-03-06T06:58:06.403Z,84.43
2023-03-06T06:59:16.749Z,85.56
2023-03-06T07:00:08.723Z,82.50
2023-03-06T07:01:06.960Z,83.31
2023-03-06T07:02:07.859Z,82.02
2023-03-06T07:03:07.243Z,81.05
2023-03-06T07:04:07.537Z,81.69
2023-03-06T07:05:08.589Z,83.14
2023-03-06T07:06:07.732Z,83.31
2023-03-06T07:07:07.896Z,82.50
2023-03-06T07:08:08.072Z,84.92
2023-03-06T07:09:08.228Z,83.47
2023-03-06T07:10:08.420Z,81.05
2023-03-06T07:11:09.401Z,84.59
2023-03-06T07:12:08.780Z,85.08
2023-03-06T07:13:08.943Z,86.04
2023-03-06T07:14:09.136Z,81.37
2023-03-06T07:15:09.317Z,84.59
2023-03-06T07:16:09.513Z,82.02
2023-03-06T07:17:11.361Z,80.73
2023-03-06T07:18:09.855Z,82.34
2023-03-06T07:19:10.046Z,83.79
2023-03-06T07:20:10.202Z,83.14
2023-03-06T07:21:10.355Z,79.60
2023-03-06T07:22:10.557Z,84.11
2023-03-06T07:23:10.711Z,78.63
2023-03-06T07:24:10.867Z,83.95
2023-03-06T07:25:11.032Z,89.43
2023-03-06T07:26:11.867Z,81.69
2023-03-06T07:27:12.405Z,82.02
2023-03-06T07:28:11.537Z,80.08
2023-03-06T07:29:11.711Z,85.08
2023-03-06T07:30:11.931Z,80.89
2023-03-06T07:31:12.113Z,81.53
2023-03-06T07:32:12.948Z,80.57
2023-03-06T07:33:12.448Z,81.21
2023-03-06T07:34:12.583Z,81.53
2023-03-06T07:35:20.100Z,82.82
2023-03-06T07:36:14.910Z,82.66
2023-03-06T07:37:12.981Z,80.73
2023-03-06T07:38:13.729Z,83.63
2023-03-06T07:39:13.386Z,81.21
2023-03-06T07:40:13.575Z,81.53
2023-03-06T07:41:14.750Z,84.27
2023-03-06T07:42:14.381Z,79.76
2023-03-06T07:43:19.297Z,81.05
2023-03-06T07:44:15.207Z,80.24
2023-03-06T07:45:14.352Z,78.47
2023-03-06T07:46:14.566Z,81.53
2023-03-06T07:47:14.640Z,82.50
2023-03-06T07:48:15.376Z,84.11
2023-03-06T07:49:15.039Z,83.63
2023-03-06T07:50:16.376Z,81.86
2023-03-06T07:51:15.920Z,83.63
2023-03-06T07:52:15.583Z,80.08
2023-03-06T07:53:15.784Z,80.08
2023-03-06T07:54:16.038Z,79.28
2023-03-06T07:55:16.429Z,82.98
2023-03-06T07:56:16.381Z,84.59
2023-03-06T07:57:16.574Z,79.76
2023-03-06T07:58:16.786Z,80.89
2023-03-06T07:59:17.015Z,82.82
2023-03-06T08:00:17.927Z,84.43
2023-03-06T08:01:18.383Z,83.31
2023-03-06T08:02:17.931Z,81.53
2023-03-06T08:03:17.864Z,85.08
2023-03-06T08:04:18.093Z,82.82
2023-03-06T08:05:18.295Z,82.34
2023-03-06T08:06:18.517Z,79.92
2023-03-06T08:07:19.878Z,79.92
2023-03-06T08:08:18.892Z,81.21
2023-03-06T08:09:19.067Z,86.04
2023-03-06T08:10:19.240Z,80.24
2023-03-06T08:11:19.418Z,82.98
2023-03-06T08:12:40.611Z,80.89
2023-03-06T08:13:19.736Z,82.18
2023-03-06T08:14:21.239Z,83.47
2023-03-06T08:15:20.875Z,81.86
2023-03-06T08:16:21.028Z,78.79
2023-03-06T08:17:20.624Z,81.05
2023-03-06T08:18:21.698Z,78.31
2023-03-06T08:19:21.805Z,83.14
2023-03-06T08:20:21.914Z,82.98
2023-03-06T08:21:21.309Z,79.92
2023-03-06T08:22:21.475Z,78.47
2023-03-06T08:23:21.634Z,78.63
2023-03-06T08:24:21.952Z,82.66
2023-03-06T08:25:22.879Z,76.22
2023-03-06T08:26:23.373Z,77.99
2023-03-06T08:27:22.386Z,73.64
2023-03-06T08:28:23.874Z,79.44
2023-03-06T08:29:22.733Z,76.22
2023-03-06T08:30:23.417Z,77.83
2023-03-06T08:31:23.111Z,77.99
2023-03-06T08:32:23.212Z,83.31
2023-03-06T08:33:23.373Z,84.27
2023-03-06T08:34:25.327Z,77.50
2023-03-06T08:35:23.845Z,79.76
2023-03-06T08:36:24.043Z,77.83
2023-03-06T08:37:24.979Z,77.34
2023-03-06T08:38:24.366Z,84.11
2023-03-06T08:39:26.401Z,80.57
2023-03-06T08:40:24.737Z,82.98
2023-03-06T08:41:27.242Z,82.34
2023-03-06T08:42:25.006Z,79.12
2023-03-06T08:43:25.199Z,80.41
2023-03-06T08:44:25.396Z,80.08
2023-03-06T08:45:25.613Z,82.50
2023-03-06T08:46:25.846Z,82.18
2023-03-06T08:47:26.873Z,83.63
2023-03-06T08:48:26.268Z,82.50
2023-03-06T08:49:28.418Z,80.89
2023-03-06T08:50:26.672Z,82.18
2023-03-06T08:51:26.820Z,81.37
2023-03-06T08:52:26.985Z,81.05
2023-03-06T08:53:41.658Z,78.63
2023-03-06T08:54:29.308Z,86.21
2023-03-06T08:55:27.428Z,81.21
2023-03-06T08:56:27.627Z,82.02
2023-03-06T08:57:27.833Z,80.41
2023-03-06T08:58:28.875Z,81.21
2023-03-06T08:59:32.913Z,79.92
2023-03-06T09:00:29.929Z,81.37
2023-03-06T09:01:28.657Z,81.53
2023-03-06T09:02:29.905Z,85.56
2023-03-06T09:03:28.958Z,79.76
2023-03-06T09:04:29.158Z,80.89
2023-03-06T09:05:29.352Z,84.27
2023-03-06T09:06:29.525Z,80.89
2023-03-06T09:07:29.706Z,83.95
2023-03-06T09:08:30.421Z,82.50
2023-03-06T09:09:30.097Z,81.69
2023-03-06T09:10:30.292Z,81.69
2023-03-06T09:11:30.517Z,77.02
2023-03-06T09:12:32.610Z,83.14
2023-03-06T09:13:34.384Z,81.69
2023-03-06T09:14:31.921Z,80.89
2023-03-06T09:15:31.213Z,86.04
2023-03-06T09:16:31.942Z,81.21
2023-03-06T09:17:31.598Z,80.41
2023-03-06T09:18:32.380Z,86.37
2023-03-06T09:19:32.417Z,81.53
2023-03-06T09:20:33.926Z,80.24
2023-03-06T09:21:34.882Z,83.14
2023-03-06T09:22:33.382Z,79.92
2023-03-06T09:23:32.571Z,81.69
2023-03-06T09:24:33.424Z,81.05
2023-03-06T09:25:32.999Z,85.88
2023-03-06T09:26:44.985Z,79.60
2023-03-06T09:27:35.235Z,84.92
2023-03-06T09:28:34.395Z,79.92
2023-03-06T09:29:33.657Z,79.92
2023-03-06T09:30:33.834Z,82.82
2023-03-06T09:31:34.020Z,81.05
2023-03-06T09:32:34.205Z,85.88
2023-03-06T09:33:35.394Z,83.63
2023-03-06T09:34:34.934Z,79.12
2023-03-06T09:35:35.764Z,82.34
2023-03-06T09:36:53.369Z,82.34
2023-03-06T09:37:37.091Z,82.66
2023-03-06T09:38:35.245Z,78.79
2023-03-06T09:39:35.427Z,80.41
2023-03-06T09:40:35.604Z,79.76
2023-03-06T09:41:36.388Z,83.14
2023-03-06T09:42:37.112Z,79.12
2023-03-06T09:43:36.453Z,82.18
2023-03-06T09:44:36.362Z,80.41
2023-03-06T09:45:37.896Z,80.24
2023-03-06T09:46:36.674Z,78.63
2023-03-06T09:47:36.852Z,80.57
2023-03-06T09:48:37.902Z,85.24
2023-03-06T09:49:37.894Z,81.53
2023-03-06T09:50:37.426Z,88.62
2023-03-06T09:51:37.602Z,82.50
2023-03-06T09:52:38.429Z,80.73
2023-03-06T09:53:37.972Z,82.50
2023-03-06T09:54:38.196Z,81.37
2023-03-06T09:55:38.355Z,78.96
2023-03-06T09:56:38.941Z,81.53
2023-03-06T09:57:38.727Z,80.24
2023-03-06T09:58:40.394Z,81.21
2023-03-06T09:59:39.124Z,82.50
2023-03-06T10:00:39.274Z,80.57
2023-03-06T10:01:40.898Z,81.05
2023-03-06T10:02:40.568Z,82.98
2023-03-06T10:03:39.948Z,83.79
2023-03-06T10:04:41.442Z,81.37
2023-03-06T10:05:40.107Z,81.05
2023-03-06T10:06:40.270Z,78.15
2023-03-06T10:07:41.395Z,79.92
2023-03-06T10:08:41.396Z,81.86
2023-03-06T10:09:40.806Z,80.24
2023-03-06T10:10:40.963Z,82.66
2023-03-06T10:11:41.112Z,83.79
2023-03-06T10:12:41.280Z,79.44
2023-03-06T10:13:42.409Z,79.76
2023-03-06T10:14:41.685Z,79.44
2023-03-06T10:15:42.487Z,81.53
2023-03-06T10:16:42.055Z,81.21
2023-03-06T10:17:43.896Z,82.02
2023-03-06T10:18:43.400Z,80.57
2023-03-06T10:19:42.593Z,81.86
2023-03-06T10:20:42.781Z,80.08
2023-03-06T10:21:43.075Z,81.21
2023-03-06T10:22:52.532Z,80.89
2023-03-06T10:23:45.336Z,80.73
2023-03-06T10:24:43.590Z,82.82
2023-03-06T10:25:43.775Z,81.21
2023-03-06T10:26:44.079Z,80.24
2023-03-06T10:27:44.467Z,76.70
2023-03-06T10:28:44.360Z,86.69
2023-03-06T10:29:53.116Z,81.86
2023-03-06T10:30:46.830Z,81.86
2023-03-06T10:31:44.955Z,83.63
2023-03-06T10:32:49.025Z,81.21
2023-03-06T10:33:46.246Z,82.02
2023-03-06T10:34:45.904Z,85.24
2023-03-06T10:35:47.527Z,89.43
2023-03-06T10:36:45.668Z,78.96
2023-03-06T10:37:45.970Z,84.59
2023-03-06T10:38:47.418Z,82.66
2023-03-06T10:39:46.902Z,78.31
2023-03-06T10:40:46.400Z,84.11
2023-03-06T10:41:46.547Z,81.05
2023-03-06T10:42:46.689Z,82.50
2023-03-06T10:43:46.887Z,79.92
2023-03-06T10:44:47.910Z,83.63
2023-03-06T10:45:49.262Z,79.92
2023-03-06T10:46:48.439Z,80.89
2023-03-06T10:47:47.559Z,80.73
2023-03-06T10:48:47.716Z,79.76
2023-03-06T10:49:48.405Z,84.76
2023-03-06T10:50:48.902Z,82.02
2023-03-06T10:51:48.142Z,83.47
2023-03-06T10:52:48.306Z,83.63
2023-03-06T10:53:49.418Z,85.08
2023-03-06T10:54:48.712Z,78.79
2023-03-06T10:55:48.874Z,81.21
2023-03-06T10:56:49.901Z,82.02
2023-03-06T10:57:50.905Z,81.05
2023-03-06T10:58:50.903Z,84.76
2023-03-06T10:59:49.676Z,82.02
2023-03-06T11:00:50.400Z,80.57
2023-03-06T11:01:50.078Z,81.53
2023-03-06T11:02:50.246Z,82.18
2023-03-06T11:03:50.948Z,80.73
2023-03-06T11:04:50.633Z,82.34
2023-03-06T11:05:50.791Z,85.72
2023-03-06T11:06:50.923Z,79.92
2023-03-06T11:07:52.770Z,81.05
2023-03-06T11:08:52.420Z,80.57
2023-03-06T11:09:51.459Z,82.50
2023-03-06T11:10:51.639Z,83.14
2023-03-06T11:11:52.413Z,81.69
2023-03-06T11:12:52.902Z,82.18
2023-03-06T11:13:52.288Z,84.59
2023-03-06T11:14:52.454Z,80.24
2023-03-06T11:15:52.653Z,82.02
2023-03-06T11:16:52.821Z,82.66
2023-03-06T11:17:52.993Z,82.98
2023-03-06T11:18:54.908Z,80.89
2023-03-06T11:19:53.415Z,79.92
2023-03-06T11:20:53.668Z,84.76
2023-03-06T11:21:53.964Z,86.69
2023-03-06T11:22:54.908Z,82.50
2023-03-06T11:23:54.954Z,78.96
2023-03-06T11:24:54.964Z,81.69
2023-03-06T11:25:54.653Z,82.50
2023-03-06T11:26:54.834Z,83.63
2023-03-06T11:27:56.993Z,80.89
2023-03-06T11:28:55.307Z,80.08
2023-03-06T11:29:55.945Z,82.02
2023-03-06T11:30:55.637Z,80.73
2023-03-06T11:31:55.813Z,80.41
2023-03-06T11:32:56.457Z,83.31
2023-03-06T11:33:56.121Z,82.50
2023-03-06T11:34:57.906Z,81.21
2023-03-06T11:35:56.489Z,80.89
2023-03-06T11:36:57.274Z,81.05
2023-03-06T11:37:56.693Z,82.50
2023-03-06T11:38:56.879Z,79.60
2023-03-06T11:39:57.091Z,84.59
2023-03-06T11:40:57.291Z,87.98
2023-03-06T11:41:57.470Z,81.86
2023-03-06T11:42:57.671Z,80.41
2023-03-06T11:43:58.451Z,83.63
2023-03-06T11:44:59.951Z,82.82
2023-03-06T11:45:58.308Z,84.76
2023-03-06T11:46:58.500Z,80.41
2023-03-06T11:47:59.412Z,80.41
2023-03-06T11:48:59.422Z,80.57
2023-03-06T11:49:59.476Z,81.21
2023-03-06T11:50:59.134Z,82.98
2023-03-06T11:51:59.311Z,85.24
2023-03-06T11:52:59.515Z,80.73
2023-03-06T11:53:59.707Z,83.14
2023-03-06T11:54:59.920Z,80.08
2023-03-06T11:56:00.101Z,83.31
2023-03-06T11:57:00.933Z,80.57
2023-03-06T11:58:01.925Z,82.34
2023-03-06T11:59:00.700Z,81.37
2023-03-06T12:00:01.430Z,79.76
2023-03-06T12:01:01.077Z,79.76
2023-03-06T12:02:01.317Z,85.40
2023-03-06T12:03:02.419Z,81.05
2023-03-06T12:04:01.689Z,82.82
2023-03-06T12:05:02.123Z,80.57
2023-03-06T12:06:02.000Z,86.69
2023-03-06T12:07:02.165Z,81.37
2023-03-06T12:08:02.922Z,81.86
2023-03-06T12:09:02.571Z,80.24
2023-03-06T12:11:04.923Z,80.57
2023-03-06T12:12:03.193Z,80.73
2023-03-06T12:13:03.959Z,82.02
2023-03-06T12:14:04.930Z,79.92
2023-03-06T12:15:03.704Z,81.69
2023-03-06T12:16:03.929Z,81.37
2023-03-06T12:17:04.136Z,80.08
2023-03-06T12:18:04.317Z,84.92
2023-03-06T12:19:04.483Z,82.98
2023-03-06T12:20:05.457Z,79.76
2023-03-06T12:21:05.459Z,80.41
2023-03-06T12:22:06.426Z,86.53
2023-03-06T12:23:14.897Z,83.63
2023-03-06T12:24:07.309Z,81.05
2023-03-06T12:25:05.550Z,83.79
2023-03-06T12:26:05.732Z,79.60
2023-03-06T12:27:05.928Z,85.56
2023-03-06T12:28:06.782Z,81.21
2023-03-06T12:29:06.963Z,79.28
2023-03-06T12:30:06.515Z,78.47
2023-03-06T12:31:07.320Z,80.57
2023-03-06T12:32:07.034Z,79.76
2023-03-06T12:33:07.005Z,82.50
2023-03-06T12:34:07.235Z,80.57
2023-03-06T12:35:07.430Z,85.08
2023-03-06T12:36:08.425Z,82.98
2023-03-06T12:37:07.863Z,85.40
2023-03-06T12:38:11.424Z,82.66
2023-03-06T12:39:08.984Z,84.11
2023-03-06T12:40:08.398Z,81.05
2023-03-06T12:41:08.595Z,81.69
2023-03-06T12:42:14.463Z,79.76
2023-03-06T12:43:11.431Z,81.69
2023-03-06T12:44:08.922Z,79.28
2023-03-06T12:45:09.120Z,80.24
2023-03-06T12:46:09.475Z,80.24
2023-03-06T12:47:09.977Z,80.41
2023-03-06T12:48:09.666Z,78.31
2023-03-06T12:49:11.166Z,80.57
2023-03-06T12:50:10.788Z,80.57
2023-03-06T12:51:11.435Z,85.24
2023-03-06T12:52:11.050Z,83.31
2023-03-06T12:53:10.618Z,82.18
2023-03-06T12:54:10.820Z,85.72
2023-03-06T12:55:11.004Z,78.96
2023-03-06T12:56:11.939Z,81.69